Latest Weather Observations for Smithton

IDT60801

Issued at 7:21 pm EST Monday 1 June 2020 (issued every 10 minutes, with the page automatically refreshed every 10 minutes)

About weather observations | Map of weather stations | Latest weather observations for TAS | Other Formats
Station Details ID: 091292 Name: SMITHTON AERODROME Lat: -40.83 Lon: 145.08 Height: 7.5 m
Data from the previous 72 hours. | See also: Recent months at Smithton
Date/Time
EST
Temp
°C
App
Temp
°C
Dew
Point
°C
Rel
Hum
%
Delta-T
°C
Wind Press
QNH
hPa
Press
MSL
hPa
Rain since
9am
mm
Dir  Spd
km/h
Gust
km/h
Spd
kts
Gust
kts
01/07:00pm 8.1 3.4 6.1 87 0.9 SW 20 26 11 14 1010.1 1010.1 0.6
01/06:30pm 8.2 2.3 6.0 86 1.0 SW 26 37 14 20 1009.4 1009.4 0.6
01/06:00pm 7.5 2.3 5.6 88 0.9 SSW 22 32 12 17 1008.7 1008.7 0.6
01/05:30pm 8.1 1.2 6.4 89 0.8 SSW 32 43 17 23 1008.1 1008.1 0.6
01/05:06pm 8.2 1.7 6.3 88 0.9 SSW 30 48 16 26 1007.5 1007.5 0.6
01/05:00pm 8.3 1.2 6.3 87 0.9 SSW 33 48 18 26 1007.3 1007.3 0.6
01/04:30pm 8.9 -0.1 6.5 85 1.1 SSW 43 61 23 33 1006.7 1006.7 0.6
01/04:01pm 9.8 1.1 7.9 88 0.9 SSW 43 61 23 33 1006.1 1006.1 0.6
01/04:00pm 9.8 0.9 7.7 87 1.0 SSW 44 61 24 33 1006.0 1006.0 0.6
01/03:56pm 9.8 1.1 7.9 88 0.9 SSW 43 61 23 33 1005.9 1005.9 0.6
01/03:30pm 10.5 2.8 8.6 88 0.9 SSW 39 52 21 28 1005.4 1005.4 0.6
01/03:06pm 11.3 5.0 9.7 90 0.8 SW 33 56 18 30 1004.7 1004.7 0.6
01/03:00pm 11.6 5.5 10.3 92 0.7 SW 33 46 18 25 1004.6 1004.6 0.6
01/02:49pm 12.3 7.3 11.0 92 0.7 SW 28 41 15 22 1004.2 1004.2 0.6
01/02:30pm 12.8 11.2 11.4 91 0.7 SW 11 15 6 8 1003.9 1003.9 0.6
01/02:00pm 12.4 10.4 11.5 94 0.5 SW 13 15 7 8 1003.6 1003.6 0.4
01/01:30pm 12.5 11.2 11.2 92 0.7 WNW 9 15 5 8 1003.1 1003.1 0.4
01/01:00pm 12.2 10.4 10.9 92 0.7 WNW 11 13 6 7 1003.0 1003.0 0.4
01/12:30pm 12.5 10.4 11.1 91 0.7 WNW 13 17 7 9 1002.8 1002.8 0.2
01/12:00pm 13.6 12.1 10.4 81 1.7 WNW 9 20 5 11 1002.5 1002.5 0.0
01/11:30am 14.9 13.2 11.1 78 2.0 NNW 11 15 6 8 1002.2 1002.2 0.0
01/11:00am 13.5 11.9 11.4 87 1.1 NNW 11 11 6 6 1002.1 1002.1 0.0
01/10:30am 12.8 10.7 9.8 82 1.5 NNW 11 17 6 9 1001.8 1001.8 0.0
01/10:00am 12.9 11.5 10.8 87 1.1 N 9 13 5 7 1001.5 1001.5 0.0
01/09:30am 12.6 11.0 10.3 86 1.2 NNW 9 11 5 6 1001.1 1001.1 0.0
01/09:00am 11.7 10.2 10.4 92 0.7 N 9 13 5 7 1000.6 1000.6 1.2
01/08:30am 11.5 9.1 10.1 91 0.7 NNW 13 17 7 9 1000.4 1000.4 1.2
01/08:00am 11.3 8.2 10.4 94 0.5 N 17 22 9 12 1000.2 1000.2 1.2
01/07:30am 11.2 6.0 10.1 93 0.6 NNW 28 41 15 22 1000.0 1000.0 1.0
01/07:00am 12.3 8.1 9.9 85 1.2 N 22 32 12 17 999.5 999.5 1.0
01/06:30am 12.2 8.4 9.8 85 1.2 N 20 32 11 17 999.6 999.6 1.0
01/06:00am 11.8 7.5 9.4 85 1.2 N 22 30 12 16 999.5 999.5 1.0
01/05:30am 11.7 7.8 9.6 87 1.1 N 20 30 11 16 999.5 999.5 1.0
01/05:00am 12.2 7.7 8.7 79 1.8 N 22 32 12 17 999.6 999.6 1.0
01/04:30am 12.3 8.1 8.4 77 1.9 N 20 30 11 16 999.7 999.7 1.0
01/04:00am 12.2 8.1 8.5 78 1.8 N 20 28 11 15 1000.1 1000.1 1.0
01/03:30am 12.2 8.4 8.9 80 1.6 N 19 28 10 15 1000.4 1000.4 1.0
01/03:00am 11.8 8.0 9.0 83 1.4 N 19 26 10 14 1000.7 1000.7 1.0
01/02:30am 11.8 8.3 8.8 82 1.5 N 17 22 9 12 1001.0 1001.0 1.0
01/02:00am 11.9 8.5 9.1 83 1.4 N 17 26 9 14 1001.4 1001.4 1.0
01/01:30am 11.7 8.2 8.7 82 1.5 N 17 24 9 13 1001.5 1001.5 1.0
01/01:00am 11.5 8.0 8.7 83 1.4 N 17 24 9 13 1002.0 1002.0 1.0
01/12:30am 11.8 7.7 8.6 81 1.6 N 20 28 11 15 1002.4 1002.4 1.0
01/12:00am 11.4 7.3 8.6 83 1.4 N 20 30 11 16 1002.6 1002.6 1.0
 
Date/Time
EST
Temp
°C
App
Temp
°C
Dew
Point
°C
Rel
Hum
%
Delta-T
°C
Wind Press
QNH
hPa
Press
MSL
hPa
Rain since
9am
mm
Dir  Spd
km/h
Gust
km/h
Spd
kts
Gust
kts
31/11:30pm 11.1 7.6 8.7 85 1.2 N 17 20 9 11 1003.2 1003.2 1.0
31/11:00pm 10.9 7.7 8.3 84 1.3 N 15 20 8 11 1003.5 1003.5 1.0
31/10:30pm 11.2 7.7 8.6 84 1.3 N 17 22 9 12 1004.1 1004.1 1.0
31/10:00pm 11.2 7.0 8.4 83 1.4 N 20 28 11 15 1004.6 1004.6 1.0
31/09:30pm 11.7 8.1 8.4 80 1.6 N 17 22 9 12 1005.0 1005.0 1.0
31/09:00pm 11.5 8.6 8.2 80 1.6 NNW 13 19 7 10 1005.4 1005.4 1.0
31/08:30pm 11.1 7.5 8.3 83 1.4 NNW 17 22 9 12 1005.8 1005.8 1.0
31/08:00pm 11.2 7.5 8.1 81 1.5 NNW 17 24 9 13 1005.8 1005.8 1.0
31/07:30pm 11.3 7.3 9.0 86 1.1 NNW 20 28 11 15 1006.0 1006.0 1.0
31/07:00pm 10.8 7.3 8.9 88 0.9 NNW 17 24 9 13 1006.2 1006.2 1.0
31/06:30pm 9.9 7.3 7.7 86 1.1 N 11 15 6 8 1006.3 1006.3 1.0
31/06:00pm 10.5 7.4 8.8 89 0.8 N 15 22 8 12 1006.4 1006.4 1.0
31/05:30pm 9.3 6.7 7.7 90 0.8 N 11 13 6 7 1006.5 1006.5 1.0
31/05:00pm 9.3 6.1 6.9 85 1.1 NNW 13 15 7 8 1006.5 1006.5 1.0
31/04:30pm 11.3 8.8 8.3 82 1.5 NW 11 13 6 7 1006.7 1006.7 1.0
31/04:00pm 11.8 9.4 8.5 80 1.6 NW 11 17 6 9 1006.6 1006.6 1.0
31/03:30pm 11.6 8.3 8.1 79 1.7 WNW 15 17 8 9 1006.6 1006.6 1.0
31/03:00pm 12.4 8.9 8.7 78 1.8 WNW 17 22 9 12 1006.7 1006.7 0.6
31/02:30pm 12.8 8.4 9.1 78 1.9 NW 22 35 12 19 1006.6 1006.6 0.6
31/02:00pm 13.0 10.3 10.2 83 1.5 WNW 15 24 8 13 1006.8 1006.8 0.6
31/01:30pm 11.4 6.9 8.6 83 1.4 W 22 32 12 17 1007.2 1007.2 0.6
31/01:00pm 13.2 9.4 8.9 75 2.2 NW 19 24 10 13 1007.3 1007.3 0.4
31/12:30pm 13.1 8.8 9.4 78 1.9 NW 22 30 12 16 1007.6 1007.6 0.4
31/12:00pm 12.5 9.7 9.9 84 1.3 NW 15 20 8 11 1008.1 1008.1 0.4
31/11:30am 11.7 7.0 9.4 86 1.2 NW 24 35 13 19 1008.5 1008.5 0.4
31/11:00am 13.5 10.0 10.3 81 1.7 NW 19 24 10 13 1008.8 1008.8 0.2
31/10:30am 12.1 10.8 10.0 87 1.1 NW 7 11 4 6 1009.0 1009.0 0.2
31/10:00am 11.9 10.4 10.5 91 0.7 WNW 9 13 5 7 1009.1 1009.1 0.2
31/09:30am 11.1 9.5 10.2 94 0.5 W 9 15 5 8 1009.2 1009.2 0.0
31/09:00am 11.2 10.1 10.6 96 0.3 N 7 11 4 6 1008.9 1008.9 2.2
31/08:30am 8.0 6.1 7.6 97 0.2 N 7 9 4 5 1008.7 1008.7 2.2
31/08:00am 7.0 5.4 6.4 96 0.3 W 4 7 2 4 1008.6 1008.6 2.2
31/07:30am 6.3 5.3 5.7 96 0.3 CALM 0 0 0 0 1008.5 1008.5 2.2
31/07:00am 6.3 5.3 5.6 95 0.3 CALM 0 0 0 0 1008.5 1008.5 2.2
31/06:30am 7.8 7.1 7.1 95 0.3 CALM 0 0 0 0 1008.3 1008.3 2.2
31/06:00am 7.9 5.8 6.5 91 0.6 W 7 9 4 5 1008.0 1008.0 2.0
31/05:30am 8.6 5.8 7.1 90 0.7 WSW 11 13 6 7 1007.7 1007.7 2.0
31/05:00am 9.8 6.2 8.2 90 0.8 W 17 20 9 11 1007.3 1007.3 2.0
31/04:30am 10.3 6.5 9.1 92 0.6 W 19 24 10 13 1006.7 1006.7 2.0
31/04:00am 10.8 6.9 9.6 92 0.6 W 20 26 11 14 1006.3 1006.3 2.0
31/03:30am 11.4 6.5 10.0 91 0.7 WNW 26 35 14 19 1005.8 1005.8 2.0
31/03:21am 11.6 5.6 10.2 91 0.7 WNW 32 44 17 24 1005.9 1005.9 2.0
31/03:00am 12.3 5.5 10.5 89 0.9 NW 37 50 20 27 1005.7 1005.7 1.2
31/02:47am 12.4 5.8 10.1 86 1.2 NW 35 56 19 30 1005.7 1005.7 1.0
31/02:30am 12.9 6.7 10.1 83 1.4 NW 33 48 18 26 1005.8 1005.8 1.0
31/02:00am 12.6 6.4 10.0 84 1.3 NW 33 50 18 27 1005.9 1005.9 1.0
31/01:33am 12.5 5.9 10.0 85 1.3 NNW 35 54 19 29 1005.9 1005.9 1.0
31/01:30am 12.4 5.8 10.1 86 1.2 NNW 35 52 19 28 1005.9 1005.9 1.0
31/01:00am 12.3 5.3 9.9 85 1.2 NNW 37 57 20 31 1006.5 1006.5 0.6
31/12:52am 12.3 7.1 10.2 87 1.1 NW 28 46 15 25 1006.7 1006.7 0.6
31/12:30am 12.0 5.7 9.6 85 1.2 NW 33 46 18 25 1006.9 1006.9 0.6
31/12:08am 13.3 5.2 10.1 81 1.7 NNW 43 61 23 33 1006.9 1006.9 0.4
31/12:00am 13.3 5.7 10.5 83 1.5 NNW 41 57 22 31 1006.9 1006.9 0.4
 
Date/Time
EST
Temp
°C
App
Temp
°C
Dew
Point
°C
Rel
Hum
%
Delta-T
°C
Wind Press
QNH
hPa
Press
MSL
hPa
Rain since
9am
mm
Dir  Spd
km/h
Gust
km/h
Spd
kts
Gust
kts
30/11:51pm 13.2 7.1 10.6 84 1.4 N 33 57 18 31 1007.1 1007.1 0.4
30/11:30pm 13.5 6.6 10.3 81 1.7 N 37 50 20 27 1007.2 1007.2 0.0
30/11:00pm 14.5 8.2 9.7 73 2.5 N 33 54 18 29 1007.3 1007.3 0.0
30/10:57pm 14.6 8.5 9.6 72 2.6 N 32 54 17 29 1007.4 1007.4 0.0
30/10:30pm 14.4 7.8 10.0 75 2.3 N 35 50 19 27 1008.0 1008.0 0.0
30/10:00pm 14.5 7.9 10.1 75 2.3 N 35 52 19 28 1008.4 1008.4 0.0
30/09:30pm 14.4 7.7 9.6 73 2.5 N 35 57 19 31 1008.9 1008.9 0.0
30/09:29pm 14.6 7.9 9.6 72 2.6 N 35 57 19 31 1008.9 1008.9 0.0
30/09:00pm 14.1 7.7 9.5 74 2.4 N 33 50 18 27 1009.4 1009.4 0.0
30/08:54pm 14.0 7.8 9.4 74 2.4 N 32 50 17 27 1009.5 1009.5 0.0
30/08:30pm 13.9 8.1 9.5 75 2.3 NNE 30 39 16 21 1010.0 1010.0 0.0
30/08:00pm 13.9 8.1 9.3 74 2.3 NNE 30 43 16 23 1010.4 1010.4 0.0
30/07:30pm 13.5 7.6 9.2 75 2.2 NNE 30 39 16 21 1010.6 1010.6 0.0
30/07:00pm 13.4 8.4 9.5 77 2.0 NNE 26 35 14 19 1011.0 1011.0 0.0
30/06:30pm 13.3 7.8 9.2 76 2.1 NNE 28 37 15 20 1010.9 1010.9 0.0
30/06:00pm 13.1 7.3 9.5 79 1.8 NNE 30 41 16 22 1011.2 1011.2 0.0
30/05:30pm 13.4 7.1 9.6 78 1.9 NNE 33 44 18 24 1011.1 1011.1 0.0
30/05:00pm 13.4 7.4 10.0 80 1.8 NNE 32 43 17 23 1011.4 1011.4 0.0
30/04:30pm 13.5 7.8 9.9 79 1.9 NNE 30 43 16 23 1012.1 1012.1 0.0
30/04:00pm 13.7 8.1 10.3 80 1.8 NNE 30 39 16 21 1012.6 1012.6 0.0
30/03:30pm 13.9 7.9 10.1 78 2.0 N 32 43 17 23 1013.1 1013.1 0.0
30/03:00pm 14.1 8.0 10.3 78 2.0 N 33 46 18 25 1013.4 1013.4 0.0
30/02:30pm 14.7 8.7 10.9 78 2.0 NNE 33 46 18 25 1013.9 1013.9 0.0
30/02:00pm 14.6 8.1 10.4 76 2.2 N 35 50 19 27 1014.3 1014.3 0.0
30/01:30pm 14.8 8.4 10.8 77 2.1 N 35 50 19 27 1014.9 1014.9 0.0
30/01:00pm 14.0 7.6 10.8 81 1.7 N 35 48 19 26 1015.5 1015.5 0.0
30/12:30pm 15.3 9.0 11.1 76 2.2 N 35 46 19 25 1016.1 1016.1 0.0
30/12:03pm 15.4 9.4 10.8 74 2.4 N 33 52 18 28 1016.6 1016.6 0.0
30/12:00pm 15.3 9.0 11.1 76 2.2 N 35 50 19 27 1016.7 1016.7 0.0
30/11:30am 15.1 9.0 10.5 74 2.4 N 33 50 18 27 1017.3 1017.3 0.0
30/11:00am 15.1 8.9 11.3 78 2.0 N 35 50 19 27 1017.9 1017.9 0.0
30/10:32am 15.0 9.4 11.4 79 1.9 N 32 50 17 27 1018.3 1018.3 0.0
30/10:30am 14.8 8.9 11.0 78 2.0 N 33 50 18 27 1018.2 1018.2 0.0
30/10:05am 14.5 8.8 11.1 80 1.8 N 32 50 17 27 1018.4 1018.4 0.0
30/10:00am 14.6 9.0 11.4 81 1.7 N 32 48 17 26 1018.5 1018.5 0.0
30/09:30am 14.3 9.4 11.3 82 1.6 N 28 41 15 22 1019.1 1019.1 0.0
30/09:00am 13.9 8.6 11.2 84 1.4 N 30 43 16 23 1019.2 1019.2 0.2
30/08:30am 13.5 9.0 11.4 87 1.1 N 26 33 14 18 1019.4 1019.4 0.2
30/08:00am 13.1 9.0 11.3 89 0.9 N 24 37 13 20 1019.5 1019.5 0.2
30/07:30am 12.9 8.0 11.3 90 0.8 N 28 39 15 21 1019.5 1019.5 0.2
30/07:00am 12.8 8.6 11.2 90 0.8 N 24 37 13 20 1019.6 1019.6 0.2
30/06:30am 12.8 8.7 11.4 91 0.7 N 24 32 13 17 1019.6 1019.6 0.2
30/06:00am 12.9 9.6 11.5 91 0.7 N 20 32 11 17 1019.7 1019.7 0.2
30/05:30am 12.8 9.6 11.2 90 0.8 N 19 26 10 14 1019.8 1019.8 0.2
30/05:00am 13.2 9.8 11.4 89 1.0 N 20 26 11 14 1019.7 1019.7 0.2
30/04:30am 13.3 9.6 11.4 88 1.0 N 22 35 12 19 1019.8 1019.8 0.2
30/04:00am 13.0 9.6 11.4 90 0.8 N 20 28 11 15 1019.9 1019.9 0.2
30/03:30am 13.3 10.0 11.7 90 0.9 N 20 32 11 17 1020.1 1020.1 0.2
30/03:00am 13.3 10.1 11.9 91 0.7 N 20 32 11 17 1020.2 1020.2 0.2
30/02:30am 13.4 10.4 12.1 92 0.7 N 19 26 10 14 1020.4 1020.4 0.2
30/02:00am 13.4 10.4 12.1 92 0.7 N 19 26 10 14 1020.5 1020.5 0.2
30/01:30am 13.5 10.4 12.2 92 0.7 N 20 28 11 15 1020.7 1020.7 0.2
30/01:00am 13.2 10.4 11.3 88 1.0 N 17 22 9 12 1021.1 1021.1 0.2
30/12:30am 12.9 10.5 11.3 90 0.8 N 15 20 8 11 1021.4 1021.4 0.2
30/12:00am 13.0 10.2 11.4 90 0.8 N 17 20 9 11 1021.8 1021.8 0.2
 
Date/Time
EST
Temp
°C
App
Temp
°C
Dew
Point
°C
Rel
Hum
%
Delta-T
°C
Wind Press
QNH
hPa
Press
MSL
hPa
Rain since
9am
mm
Dir  Spd
km/h
Gust
km/h
Spd
kts
Gust
kts
29/11:30pm 13.0 10.7 11.6 91 0.7 N 15 20 8 11 1022.0 1022.0 0.2
29/11:00pm 12.5 10.3 10.7 89 0.9 N 13 20 7 11 1022.1 1022.1 0.2
29/10:30pm 12.2 10.3 10.4 89 0.9 N 11 17 6 9 1022.3 1022.3 0.2
29/10:00pm 11.7 9.3 10.1 90 0.8 N 13 19 7 10 1022.5 1022.5 0.2
29/09:30pm 12.1 9.4 10.3 89 0.9 N 15 20 8 11 1022.5 1022.5 0.2
29/09:00pm 12.2 9.7 10.9 92 0.7 N 15 19 8 10 1022.6 1022.6 0.2
29/08:30pm 12.5 9.9 10.7 89 0.9 N 15 20 8 11 1022.7 1022.7 0.2
29/08:00pm 12.5 10.2 10.6 88 1.0 N 13 20 7 11 1022.5 1022.5 0.2
29/07:30pm 12.5 10.3 10.7 89 0.9 N 13 17 7 9 1022.5 1022.5 0.0

Other formats

Comma delimited format used in spreadsheet applications
http://www.bom.gov.au/fwo/IDT60801/IDT60801.94953.axf

JavaScript Object Notation format (JSON) in row-major order
http://www.bom.gov.au/fwo/IDT60801/IDT60801.94953.json

Data quality

Most of these data are generated automatically and are frequently updated. Quality checks on data are not normally performed. It is possible for incorrect values to appear. Refer to information at About Latest Weather Observations and please check the disclaimer before using these data.